EWG3JM EDDH-EDDM
Flight info
| Callsign | EWG3JM |
|---|---|
| Flight time | 1h 28m |
| Altitude | 28000 |
| Route | AMLUH2C/05 AMLUH M852 DENIX DCT ZUCKA DCT SODRO T703 LULAR T105 LANDU LANDU2A |
| Aircraft | A320/M-SDE3FGHIRWY/LB1 |
Departure
| Time | 2026-05-06 13:19 |
|---|---|
| Airport | Hamburg Helmut Schmidt Airport (EDDH) |
Arrival
| Time | 2026-05-06 14:47 |
|---|---|
| Airport | Munich Airport (EDDM) |
| Time | Latitude | Longitude | Altitude | Speed | Heading |
|---|---|---|---|---|---|
| 2026-05-06 12:51 | 53.63169 | 10.00367 | 51 ft | 0 kts | 87° |
| 2026-05-06 13:07 | 53.63168 | 10.00339 | 51 ft | 2 kts | 87° |
| 2026-05-06 13:07 | 53.63168 | 10.00311 | 51 ft | 2 kts | 87° |
| 2026-05-06 13:08 | 53.63165 | 10.00283 | 51 ft | 2 kts | 84° |
| 2026-05-06 13:08 | 53.63164 | 10.00254 | 50 ft | 2 kts | 84° |
| 2026-05-06 13:08 | 53.63162 | 10.00226 | 47 ft | 2 kts | 84° |
| 2026-05-06 13:08 | 53.63161 | 10.00197 | 47 ft | 2 kts | 126° |
| 2026-05-06 13:09 | 53.63170 | 10.00183 | 45 ft | 0 kts | 167° |
| 2026-05-06 13:11 | 53.63160 | 10.00187 | 46 ft | 2 kts | 168° |
| 2026-05-06 13:11 | 53.63122 | 10.00197 | 51 ft | 11 kts | 172° |
| 2026-05-06 13:12 | 53.63111 | 10.00200 | 51 ft | 3 kts | 171° |
| 2026-05-06 13:12 | 53.63041 | 10.00225 | 51 ft | 16 kts | 188° |
| 2026-05-06 13:12 | 53.62953 | 10.00137 | 51 ft | 14 kts | 212° |
| 2026-05-06 13:12 | 53.62871 | 10.00058 | 49 ft | 13 kts | 204° |
| 2026-05-06 13:13 | 53.62815 | 9.99976 | 51 ft | 0 kts | 224° |
| 2026-05-06 13:13 | 53.62812 | 9.99971 | 50 ft | 1 kts | 224° |
| 2026-05-06 13:13 | 53.62755 | 9.99916 | 50 ft | 18 kts | 207° |
| 2026-05-06 13:13 | 53.62653 | 9.99807 | 49 ft | 16 kts | 232° |
| 2026-05-06 13:14 | 53.62624 | 9.99639 | 50 ft | 14 kts | 258° |
| 2026-05-06 13:14 | 53.62608 | 9.99488 | 47 ft | 12 kts | 259° |
| 2026-05-06 13:14 | 53.62593 | 9.99357 | 48 ft | 11 kts | 259° |
| 2026-05-06 13:14 | 53.62580 | 9.99245 | 51 ft | 10 kts | 259° |
| 2026-05-06 13:15 | 53.62561 | 9.99070 | 51 ft | 21 kts | 259° |
| 2026-05-06 13:15 | 53.62528 | 9.98774 | 51 ft | 30 kts | 259° |
| 2026-05-06 13:15 | 53.62504 | 9.98566 | 51 ft | 16 kts | 258° |
| 2026-05-06 13:15 | 53.62482 | 9.98389 | 51 ft | 15 kts | 258° |
| 2026-05-06 13:16 | 53.62463 | 9.98231 | 48 ft | 13 kts | 259° |
| 2026-05-06 13:16 | 53.62446 | 9.98075 | 49 ft | 16 kts | 260° |
| 2026-05-06 13:16 | 53.62428 | 9.97897 | 50 ft | 9 kts | 267° |
| 2026-05-06 13:16 | 53.62431 | 9.97858 | 49 ft | 0 kts | 285° |
| 2026-05-06 13:17 | 53.62449 | 9.97820 | 48 ft | 11 kts | 318° |
| 2026-05-06 13:17 | 53.62515 | 9.97773 | 47 ft | 9 kts | 23° |
| 2026-05-06 13:17 | 53.62539 | 9.97816 | 47 ft | 0 kts | 51° |
| 2026-05-06 13:18 | 53.62594 | 9.97927 | 48 ft | 41 kts | 50° |
| 2026-05-06 13:18 | 53.62933 | 9.98613 | 49 ft | 107 kts | 50° |
| 2026-05-06 13:18 | 53.63514 | 9.99785 | 103 ft | 151 kts | 51° |
| 2026-05-06 13:19 | 53.64227 | 10.01209 | 664 ft | 167 kts | 49° |
| 2026-05-06 13:19 | 53.65020 | 10.02809 | 1211 ft | 188 kts | 51° |
| 2026-05-06 13:19 | 53.65890 | 10.04591 | 1799 ft | 198 kts | 51° |
| 2026-05-06 13:19 | 53.66768 | 10.06396 | 2377 ft | 210 kts | 51° |
| 2026-05-06 13:20 | 53.67742 | 10.08398 | 2958 ft | 231 kts | 51° |
| 2026-05-06 13:20 | 53.68809 | 10.10587 | 3540 ft | 252 kts | 51° |
| 2026-05-06 13:20 | 53.69859 | 10.13092 | 4109 ft | 270 kts | 66° |
| 2026-05-06 13:20 | 53.70138 | 10.16300 | 4700 ft | 288 kts | 97° |
| 2026-05-06 13:21 | 53.69368 | 10.19410 | 5026 ft | 300 kts | 128° |
| 2026-05-06 13:21 | 53.67657 | 10.21472 | 5587 ft | 309 kts | 154° |
| 2026-05-06 13:21 | 53.65604 | 10.22669 | 6175 ft | 314 kts | 162° |
| 2026-05-06 13:21 | 53.63492 | 10.23547 | 6713 ft | 318 kts | 165° |
| 2026-05-06 13:22 | 53.61316 | 10.24338 | 7264 ft | 321 kts | 166° |
| 2026-05-06 13:22 | 53.59121 | 10.25148 | 7818 ft | 324 kts | 166° |
| 2026-05-06 13:22 | 53.56914 | 10.26016 | 8384 ft | 326 kts | 165° |
| 2026-05-06 13:22 | 53.54697 | 10.26947 | 9068 ft | 330 kts | 163° |
| 2026-05-06 13:23 | 53.52462 | 10.27928 | 9875 ft | 332 kts | 162° |
| 2026-05-06 13:23 | 53.50211 | 10.28942 | 10453 ft | 339 kts | 162° |
| 2026-05-06 13:23 | 53.47913 | 10.29987 | 11044 ft | 344 kts | 163° |
| 2026-05-06 13:23 | 53.45590 | 10.31041 | 11648 ft | 347 kts | 163° |
| 2026-05-06 13:24 | 53.43278 | 10.32084 | 12240 ft | 349 kts | 163° |
| 2026-05-06 13:24 | 53.40920 | 10.33143 | 12883 ft | 352 kts | 164° |
| 2026-05-06 13:24 | 53.38553 | 10.34202 | 13513 ft | 352 kts | 165° |
| 2026-05-06 13:24 | 53.36175 | 10.35269 | 14095 ft | 354 kts | 165° |
| 2026-05-06 13:25 | 53.33778 | 10.36347 | 14685 ft | 357 kts | 165° |
| 2026-05-06 13:25 | 53.31369 | 10.37430 | 15286 ft | 360 kts | 166° |
| 2026-05-06 13:25 | 53.28957 | 10.38513 | 15884 ft | 363 kts | 166° |
| 2026-05-06 13:25 | 53.26504 | 10.39607 | 16493 ft | 367 kts | 167° |
| 2026-05-06 13:26 | 53.24013 | 10.40716 | 17127 ft | 370 kts | 167° |
| 2026-05-06 13:26 | 53.21513 | 10.41830 | 17785 ft | 374 kts | 167° |
| 2026-05-06 13:26 | 53.18980 | 10.42959 | 18377 ft | 378 kts | 167° |
| 2026-05-06 13:26 | 53.16433 | 10.44096 | 18960 ft | 380 kts | 167° |
| 2026-05-06 13:27 | 53.13906 | 10.45175 | 19538 ft | 380 kts | 168° |
| 2026-05-06 13:27 | 53.11310 | 10.46100 | 20138 ft | 381 kts | 170° |
| 2026-05-06 13:27 | 53.08709 | 10.46902 | 20739 ft | 381 kts | 171° |
| 2026-05-06 13:27 | 53.06077 | 10.47658 | 21368 ft | 382 kts | 171° |
| 2026-05-06 13:28 | 53.03458 | 10.48409 | 22013 ft | 382 kts | 171° |
| 2026-05-06 13:28 | 53.00842 | 10.49182 | 22639 ft | 381 kts | 171° |
| 2026-05-06 13:28 | 52.98264 | 10.49967 | 23305 ft | 380 kts | 170° |
| 2026-05-06 13:28 | 52.95653 | 10.50776 | 23885 ft | 379 kts | 170° |
| 2026-05-06 13:29 | 52.93077 | 10.51581 | 24451 ft | 378 kts | 169° |
| 2026-05-06 13:29 | 52.90482 | 10.52395 | 25037 ft | 376 kts | 169° |
| 2026-05-06 13:29 | 52.87912 | 10.53200 | 25636 ft | 374 kts | 169° |
| 2026-05-06 13:29 | 52.85355 | 10.54000 | 26250 ft | 372 kts | 169° |
| 2026-05-06 13:30 | 52.82852 | 10.54782 | 26854 ft | 369 kts | 169° |
| 2026-05-06 13:30 | 52.80346 | 10.55564 | 27490 ft | 366 kts | 168° |
| 2026-05-06 13:30 | 52.77823 | 10.56348 | 27779 ft | 374 kts | 168° |
| 2026-05-06 13:30 | 52.75219 | 10.57153 | 27833 ft | 386 kts | 168° |
| 2026-05-06 13:31 | 52.72531 | 10.57980 | 27831 ft | 400 kts | 168° |
| 2026-05-06 13:31 | 52.69739 | 10.58839 | 27828 ft | 413 kts | 168° |
| 2026-05-06 13:31 | 52.66870 | 10.59720 | 27822 ft | 424 kts | 169° |
| 2026-05-06 13:31 | 52.63987 | 10.60605 | 27821 ft | 430 kts | 169° |
| 2026-05-06 13:32 | 52.61008 | 10.61519 | 27819 ft | 438 kts | 169° |
| 2026-05-06 13:32 | 52.57980 | 10.62449 | 27817 ft | 444 kts | 169° |
| 2026-05-06 13:32 | 52.54939 | 10.63382 | 27815 ft | 446 kts | 169° |
| 2026-05-06 13:32 | 52.51882 | 10.64318 | 27815 ft | 446 kts | 170° |
| 2026-05-06 13:33 | 52.48830 | 10.65252 | 27813 ft | 443 kts | 171° |
| 2026-05-06 13:33 | 52.45807 | 10.66177 | 27811 ft | 443 kts | 171° |
| 2026-05-06 13:33 | 52.42800 | 10.67093 | 27811 ft | 442 kts | 171° |
| 2026-05-06 13:33 | 52.39769 | 10.68011 | 27810 ft | 442 kts | 171° |
| 2026-05-06 13:34 | 52.36743 | 10.68925 | 27811 ft | 442 kts | 171° |
| 2026-05-06 13:34 | 52.33709 | 10.69843 | 27810 ft | 442 kts | 171° |
| 2026-05-06 13:34 | 52.30692 | 10.70759 | 27808 ft | 442 kts | 171° |
| 2026-05-06 13:34 | 52.27700 | 10.71668 | 27807 ft | 442 kts | 171° |
| 2026-05-06 13:35 | 52.24672 | 10.72584 | 27810 ft | 442 kts | 171° |
| 2026-05-06 13:35 | 52.21632 | 10.73502 | 27810 ft | 441 kts | 171° |
| 2026-05-06 13:35 | 52.18610 | 10.74416 | 27809 ft | 441 kts | 171° |
| 2026-05-06 13:35 | 52.15655 | 10.75827 | 27805 ft | 444 kts | 160° |
| 2026-05-06 13:36 | 52.12793 | 10.77734 | 27804 ft | 444 kts | 160° |
| 2026-05-06 13:36 | 52.09932 | 10.79662 | 27800 ft | 444 kts | 160° |
| 2026-05-06 13:36 | 52.07084 | 10.81594 | 27795 ft | 444 kts | 160° |
| 2026-05-06 13:36 | 52.04232 | 10.83534 | 27794 ft | 444 kts | 160° |
| 2026-05-06 13:37 | 52.01414 | 10.85451 | 27760 ft | 443 kts | 161° |
| 2026-05-06 13:37 | 51.98560 | 10.87389 | 27775 ft | 443 kts | 161° |
| 2026-05-06 13:37 | 51.95742 | 10.89301 | 27781 ft | 442 kts | 161° |
| 2026-05-06 13:37 | 51.92900 | 10.91219 | 27782 ft | 442 kts | 161° |
| 2026-05-06 13:38 | 51.90045 | 10.93136 | 27784 ft | 441 kts | 161° |
| 2026-05-06 13:38 | 51.87204 | 10.95036 | 27786 ft | 441 kts | 161° |
| 2026-05-06 13:38 | 51.84398 | 10.96912 | 27781 ft | 441 kts | 161° |
| 2026-05-06 13:38 | 51.81559 | 10.98815 | 27779 ft | 441 kts | 161° |
| 2026-05-06 13:39 | 51.78726 | 11.00715 | 27773 ft | 441 kts | 161° |
| 2026-05-06 13:39 | 51.75889 | 11.02613 | 27764 ft | 441 kts | 161° |
| 2026-05-06 13:39 | 51.73049 | 11.04507 | 27762 ft | 441 kts | 161° |
| 2026-05-06 13:39 | 51.70211 | 11.06398 | 27763 ft | 441 kts | 161° |
| 2026-05-06 13:40 | 51.67401 | 11.08264 | 27760 ft | 441 kts | 161° |
| 2026-05-06 13:40 | 51.64558 | 11.10149 | 27760 ft | 441 kts | 161° |
| 2026-05-06 13:40 | 51.61717 | 11.12034 | 27760 ft | 441 kts | 161° |
| 2026-05-06 13:40 | 51.58898 | 11.13910 | 27759 ft | 441 kts | 161° |
| 2026-05-06 13:41 | 51.56051 | 11.15804 | 27731 ft | 441 kts | 162° |
| 2026-05-06 13:41 | 51.53210 | 11.17690 | 27741 ft | 442 kts | 162° |
| 2026-05-06 13:41 | 51.50363 | 11.19572 | 27740 ft | 442 kts | 162° |
| 2026-05-06 13:41 | 51.47515 | 11.21445 | 27742 ft | 442 kts | 162° |
| 2026-05-06 13:42 | 51.44659 | 11.23319 | 27748 ft | 441 kts | 162° |
| 2026-05-06 13:42 | 51.41842 | 11.25167 | 27750 ft | 441 kts | 162° |
| 2026-05-06 13:42 | 51.38997 | 11.27032 | 27752 ft | 441 kts | 162° |
| 2026-05-06 13:42 | 51.36144 | 11.28901 | 27755 ft | 441 kts | 162° |
| 2026-05-06 13:43 | 51.33334 | 11.30741 | 27752 ft | 441 kts | 162° |
| 2026-05-06 13:43 | 51.30481 | 11.32609 | 27752 ft | 440 kts | 162° |
| 2026-05-06 13:43 | 51.27677 | 11.34440 | 27753 ft | 440 kts | 162° |
| 2026-05-06 13:43 | 51.24832 | 11.36294 | 27746 ft | 440 kts | 162° |
| 2026-05-06 13:44 | 51.21985 | 11.38148 | 27768 ft | 439 kts | 162° |
| 2026-05-06 13:44 | 51.19185 | 11.39972 | 27778 ft | 439 kts | 162° |
| 2026-05-06 13:44 | 51.16363 | 11.41810 | 27778 ft | 438 kts | 162° |
| 2026-05-06 13:44 | 51.13534 | 11.43651 | 27779 ft | 437 kts | 162° |
| 2026-05-06 13:45 | 51.10697 | 11.45491 | 27758 ft | 437 kts | 162° |
| 2026-05-06 13:45 | 51.05105 | 11.49103 | 27768 ft | 435 kts | 162° |
| 2026-05-06 13:45 | 51.02296 | 11.50916 | 27774 ft | 434 kts | 163° |
| 2026-05-06 13:46 | 50.99487 | 11.52724 | 27769 ft | 434 kts | 162° |
| 2026-05-06 13:46 | 50.96722 | 11.54503 | 27768 ft | 433 kts | 162° |
| 2026-05-06 13:46 | 50.93928 | 11.56302 | 27770 ft | 433 kts | 162° |
| 2026-05-06 13:46 | 50.91125 | 11.58105 | 27766 ft | 433 kts | 162° |
| 2026-05-06 13:47 | 50.88330 | 11.59899 | 27772 ft | 433 kts | 162° |
| 2026-05-06 13:47 | 50.85526 | 11.61694 | 27762 ft | 433 kts | 162° |
| 2026-05-06 13:47 | 50.82770 | 11.63450 | 27758 ft | 432 kts | 162° |
| 2026-05-06 13:47 | 50.79976 | 11.65233 | 27759 ft | 432 kts | 162° |
| 2026-05-06 13:48 | 50.77171 | 11.67023 | 27759 ft | 432 kts | 162° |
| 2026-05-06 13:48 | 50.74373 | 11.68806 | 27753 ft | 432 kts | 162° |
| 2026-05-06 13:48 | 50.71587 | 11.70584 | 27754 ft | 432 kts | 162° |
| 2026-05-06 13:48 | 50.68819 | 11.72348 | 27756 ft | 432 kts | 162° |
| 2026-05-06 13:49 | 50.66028 | 11.74123 | 27727 ft | 432 kts | 162° |
| 2026-05-06 13:49 | 50.63270 | 11.75868 | 27731 ft | 432 kts | 162° |
| 2026-05-06 13:49 | 50.60480 | 11.77630 | 27743 ft | 433 kts | 162° |
| 2026-05-06 13:49 | 50.57672 | 11.79403 | 27751 ft | 433 kts | 162° |
| 2026-05-06 13:50 | 50.54869 | 11.81168 | 27757 ft | 433 kts | 162° |
| 2026-05-06 13:50 | 50.52069 | 11.82927 | 27765 ft | 434 kts | 162° |
| 2026-05-06 13:50 | 50.49255 | 11.84696 | 27767 ft | 434 kts | 162° |
| 2026-05-06 13:50 | 50.46480 | 11.86441 | 27774 ft | 434 kts | 162° |
| 2026-05-06 13:51 | 50.43662 | 11.88210 | 27779 ft | 434 kts | 162° |
| 2026-05-06 13:51 | 50.40849 | 11.89974 | 27785 ft | 434 kts | 162° |
| 2026-05-06 13:51 | 50.38038 | 11.91733 | 27789 ft | 434 kts | 162° |
| 2026-05-06 13:51 | 50.35262 | 11.93467 | 27787 ft | 434 kts | 162° |
| 2026-05-06 13:52 | 50.32445 | 11.95225 | 27792 ft | 434 kts | 162° |
| 2026-05-06 13:52 | 50.29633 | 11.96984 | 27802 ft | 434 kts | 162° |
| 2026-05-06 13:52 | 50.27773 | 11.98148 | 27789 ft | 434 kts | 162° |
| 2026-05-06 13:52 | 50.24966 | 11.99901 | 27794 ft | 434 kts | 162° |
| 2026-05-06 13:53 | 50.21242 | 12.02219 | 27763 ft | 434 kts | 163° |
| 2026-05-06 13:53 | 50.18438 | 12.03966 | 27767 ft | 435 kts | 163° |
| 2026-05-06 13:53 | 50.16533 | 12.05151 | 27765 ft | 435 kts | 163° |
| 2026-05-06 13:53 | 50.13747 | 12.06881 | 27762 ft | 436 kts | 163° |
| 2026-05-06 13:54 | 50.10922 | 12.08631 | 27762 ft | 436 kts | 163° |
| 2026-05-06 13:54 | 50.08091 | 12.10379 | 27759 ft | 437 kts | 163° |
| 2026-05-06 13:54 | 50.05252 | 12.12125 | 27760 ft | 437 kts | 163° |
| 2026-05-06 13:54 | 50.02455 | 12.13842 | 27757 ft | 437 kts | 163° |
| 2026-05-06 13:55 | 49.99622 | 12.15582 | 27650 ft | 436 kts | 163° |
| 2026-05-06 13:55 | 49.96793 | 12.17322 | 27555 ft | 436 kts | 163° |
| 2026-05-06 13:55 | 49.93962 | 12.19061 | 27499 ft | 436 kts | 163° |
| 2026-05-06 13:55 | 49.91166 | 12.20773 | 27444 ft | 436 kts | 163° |
| 2026-05-06 13:56 | 49.88345 | 12.22499 | 27396 ft | 436 kts | 163° |
| 2026-05-06 13:56 | 49.85522 | 12.24227 | 27310 ft | 436 kts | 163° |
| 2026-05-06 13:56 | 49.82703 | 12.25951 | 27152 ft | 434 kts | 163° |
| 2026-05-06 13:56 | 49.79891 | 12.27671 | 27046 ft | 433 kts | 163° |
| 2026-05-06 13:57 | 49.77082 | 12.29384 | 26896 ft | 432 kts | 163° |
| 2026-05-06 13:57 | 49.74319 | 12.31070 | 26737 ft | 430 kts | 163° |
| 2026-05-06 13:57 | 49.71627 | 12.33185 | 26779 ft | 437 kts | 154° |
| 2026-05-06 13:57 | 49.69133 | 12.35954 | 26776 ft | 442 kts | 149° |
| 2026-05-06 13:58 | 49.66682 | 12.38828 | 26777 ft | 442 kts | 149° |
| 2026-05-06 13:58 | 49.64259 | 12.41666 | 26779 ft | 442 kts | 149° |
| 2026-05-06 13:58 | 49.61813 | 12.44529 | 26780 ft | 442 kts | 149° |
| 2026-05-06 13:58 | 49.59353 | 12.47401 | 26575 ft | 441 kts | 149° |
| 2026-05-06 13:59 | 49.56911 | 12.50245 | 26268 ft | 439 kts | 149° |
| 2026-05-06 13:59 | 49.54472 | 12.53079 | 25971 ft | 437 kts | 149° |
| 2026-05-06 13:59 | 49.52077 | 12.55857 | 25664 ft | 435 kts | 149° |
| 2026-05-06 13:59 | 49.49661 | 12.58654 | 25374 ft | 432 kts | 149° |
| 2026-05-06 14:00 | 49.47263 | 12.61424 | 25042 ft | 430 kts | 149° |
| 2026-05-06 14:00 | 49.44884 | 12.64168 | 24750 ft | 427 kts | 149° |
| 2026-05-06 14:00 | 49.42593 | 12.67104 | 24432 ft | 429 kts | 143° |
| 2026-05-06 14:00 | 49.40341 | 12.69956 | 24056 ft | 408 kts | 155° |
| 2026-05-06 14:01 | 49.37838 | 12.71604 | 23677 ft | 374 kts | 170° |
| 2026-05-06 14:01 | 49.35400 | 12.72221 | 23301 ft | 347 kts | 181° |
| 2026-05-06 14:01 | 49.33071 | 12.72144 | 22866 ft | 325 kts | 190° |
| 2026-05-06 14:01 | 49.30905 | 12.71524 | 22427 ft | 306 kts | 198° |
| 2026-05-06 14:02 | 49.28952 | 12.70443 | 21999 ft | 291 kts | 206° |
| 2026-05-06 14:02 | 49.27151 | 12.69167 | 21576 ft | 279 kts | 206° |
| 2026-05-06 14:02 | 49.25418 | 12.67942 | 21159 ft | 269 kts | 206° |
| 2026-05-06 14:02 | 49.23763 | 12.66772 | 20747 ft | 260 kts | 206° |
| 2026-05-06 14:03 | 49.22139 | 12.65621 | 20345 ft | 252 kts | 206° |
| 2026-05-06 14:03 | 49.20569 | 12.64503 | 19938 ft | 245 kts | 206° |
| 2026-05-06 14:03 | 49.19041 | 12.63407 | 19543 ft | 239 kts | 206° |
| 2026-05-06 14:03 | 49.17544 | 12.62331 | 19153 ft | 234 kts | 206° |
| 2026-05-06 14:04 | 49.16099 | 12.61292 | 18769 ft | 230 kts | 206° |
| 2026-05-06 14:04 | 49.14749 | 12.59999 | 18382 ft | 226 kts | 221° |
| 2026-05-06 14:04 | 49.13586 | 12.58384 | 18016 ft | 231 kts | 221° |
| 2026-05-06 14:04 | 49.12387 | 12.56717 | 17581 ft | 235 kts | 221° |
| 2026-05-06 14:05 | 49.11176 | 12.55032 | 17249 ft | 235 kts | 221° |
| 2026-05-06 14:05 | 49.09973 | 12.53353 | 16979 ft | 233 kts | 221° |
| 2026-05-06 14:05 | 49.08803 | 12.51717 | 16727 ft | 231 kts | 222° |
| 2026-05-06 14:05 | 49.07622 | 12.50064 | 16459 ft | 229 kts | 222° |
| 2026-05-06 14:06 | 49.06451 | 12.48426 | 16187 ft | 228 kts | 222° |
| 2026-05-06 14:06 | 49.05284 | 12.46798 | 15923 ft | 227 kts | 222° |
| 2026-05-06 14:06 | 49.04128 | 12.45188 | 15701 ft | 233 kts | 222° |
| 2026-05-06 14:06 | 49.02884 | 12.43461 | 15433 ft | 242 kts | 222° |
| 2026-05-06 14:07 | 49.01632 | 12.41722 | 15183 ft | 244 kts | 223° |
| 2026-05-06 14:07 | 49.00376 | 12.39979 | 14948 ft | 244 kts | 222° |
| 2026-05-06 14:07 | 48.99122 | 12.38234 | 14702 ft | 244 kts | 222° |
| 2026-05-06 14:07 | 48.97866 | 12.36487 | 14457 ft | 244 kts | 223° |
| 2026-05-06 14:08 | 48.96610 | 12.34741 | 14213 ft | 243 kts | 223° |
| 2026-05-06 14:08 | 48.95368 | 12.33018 | 13974 ft | 243 kts | 223° |
| 2026-05-06 14:08 | 48.94119 | 12.31292 | 13730 ft | 243 kts | 223° |
| 2026-05-06 14:08 | 48.92864 | 12.29556 | 13483 ft | 242 kts | 223° |
| 2026-05-06 14:09 | 48.91634 | 12.27857 | 13220 ft | 242 kts | 223° |
| 2026-05-06 14:09 | 48.90384 | 12.26129 | 12953 ft | 242 kts | 223° |
| 2026-05-06 14:09 | 48.89141 | 12.24412 | 12721 ft | 241 kts | 223° |
| 2026-05-06 14:09 | 48.87902 | 12.22701 | 12568 ft | 241 kts | 223° |
| 2026-05-06 14:10 | 48.86672 | 12.21006 | 12392 ft | 241 kts | 222° |
| 2026-05-06 14:10 | 48.85427 | 12.19292 | 12238 ft | 240 kts | 222° |
| 2026-05-06 14:10 | 48.84191 | 12.17591 | 12088 ft | 240 kts | 222° |
| 2026-05-06 14:10 | 48.82949 | 12.15884 | 11933 ft | 240 kts | 222° |
| 2026-05-06 14:11 | 48.81706 | 12.14172 | 11782 ft | 240 kts | 222° |
| 2026-05-06 14:11 | 48.80484 | 12.12492 | 11642 ft | 240 kts | 222° |
| 2026-05-06 14:11 | 48.79240 | 12.10784 | 11488 ft | 240 kts | 221° |
| 2026-05-06 14:11 | 48.78004 | 12.09088 | 11330 ft | 240 kts | 221° |
| 2026-05-06 14:12 | 48.76766 | 12.07391 | 11174 ft | 240 kts | 221° |
| 2026-05-06 14:12 | 48.75544 | 12.05715 | 11027 ft | 239 kts | 221° |
| 2026-05-06 14:12 | 48.74303 | 12.04018 | 10879 ft | 239 kts | 221° |
| 2026-05-06 14:12 | 48.73066 | 12.02327 | 10729 ft | 239 kts | 221° |
| 2026-05-06 14:13 | 48.71824 | 12.00631 | 10576 ft | 239 kts | 221° |
| 2026-05-06 14:13 | 48.70600 | 11.98959 | 10436 ft | 239 kts | 221° |
| 2026-05-06 14:13 | 48.69366 | 11.97271 | 10288 ft | 239 kts | 221° |
| 2026-05-06 14:13 | 48.68142 | 11.95601 | 10141 ft | 239 kts | 221° |
| 2026-05-06 14:14 | 48.66911 | 11.93918 | 9939 ft | 239 kts | 221° |
| 2026-05-06 14:14 | 48.65663 | 11.92217 | 9573 ft | 242 kts | 220° |
| 2026-05-06 14:14 | 48.64404 | 11.90505 | 9173 ft | 244 kts | 221° |
| 2026-05-06 14:14 | 48.63139 | 11.88784 | 8784 ft | 245 kts | 221° |
| 2026-05-06 14:15 | 48.61864 | 11.87048 | 8401 ft | 246 kts | 221° |
| 2026-05-06 14:15 | 48.60607 | 11.85339 | 8022 ft | 247 kts | 221° |
| 2026-05-06 14:15 | 48.59329 | 11.83601 | 7645 ft | 247 kts | 221° |
| 2026-05-06 14:15 | 48.58048 | 11.81859 | 7265 ft | 248 kts | 220° |
| 2026-05-06 14:16 | 48.56764 | 11.80115 | 6901 ft | 248 kts | 220° |
| 2026-05-06 14:16 | 48.55476 | 11.78366 | 6532 ft | 248 kts | 221° |
| 2026-05-06 14:16 | 48.54211 | 11.76649 | 6174 ft | 247 kts | 220° |
| 2026-05-06 14:16 | 48.52926 | 11.74907 | 5801 ft | 248 kts | 220° |
| 2026-05-06 14:17 | 48.51643 | 11.73169 | 5411 ft | 248 kts | 220° |
| 2026-05-06 14:17 | 48.50362 | 11.71436 | 4988 ft | 244 kts | 219° |
| 2026-05-06 14:17 | 48.49121 | 11.69758 | 4636 ft | 233 kts | 219° |
| 2026-05-06 14:17 | 48.47949 | 11.68176 | 4338 ft | 224 kts | 220° |
| 2026-05-06 14:18 | 48.46806 | 11.66634 | 4038 ft | 217 kts | 220° |
| 2026-05-06 14:18 | 48.45703 | 11.65148 | 3820 ft | 204 kts | 221° |
| 2026-05-06 14:18 | 48.44648 | 11.63729 | 3733 ft | 207 kts | 221° |
| 2026-05-06 14:18 | 48.43562 | 11.62270 | 3626 ft | 209 kts | 221° |
| 2026-05-06 14:19 | 48.42464 | 11.60797 | 3534 ft | 210 kts | 221° |
| 2026-05-06 14:19 | 48.41376 | 11.59336 | 3432 ft | 210 kts | 221° |
| 2026-05-06 14:19 | 48.40290 | 11.57920 | 3374 ft | 208 kts | 215° |
| 2026-05-06 14:19 | 48.39008 | 11.57139 | 3256 ft | 190 kts | 187° |
| 2026-05-06 14:20 | 48.37743 | 11.57210 | 3165 ft | 178 kts | 165° |
| 2026-05-06 14:20 | 48.36622 | 11.57942 | 3063 ft | 173 kts | 143° |
| 2026-05-06 14:20 | 48.35784 | 11.59156 | 2957 ft | 167 kts | 124° |
| 2026-05-06 14:20 | 48.35285 | 11.60680 | 2860 ft | 159 kts | 104° |
| 2026-05-06 14:21 | 48.35153 | 11.62272 | 2787 ft | 149 kts | 86° |
| 2026-05-06 14:21 | 48.35262 | 11.63801 | 2722 ft | 146 kts | 82° |
| 2026-05-06 14:21 | 48.35381 | 11.65305 | 2704 ft | 144 kts | 82° |
| 2026-05-06 14:21 | 48.35498 | 11.66798 | 2724 ft | 144 kts | 81° |
| 2026-05-06 14:22 | 48.35616 | 11.68292 | 2603 ft | 142 kts | 83° |
| 2026-05-06 14:22 | 48.35730 | 11.69762 | 2430 ft | 141 kts | 82° |
| 2026-05-06 14:22 | 48.35845 | 11.71227 | 2232 ft | 141 kts | 81° |
| 2026-05-06 14:22 | 48.35972 | 11.72679 | 2051 ft | 143 kts | 81° |
| 2026-05-06 14:23 | 48.36082 | 11.74157 | 1878 ft | 140 kts | 82° |
| 2026-05-06 14:23 | 48.36188 | 11.75608 | 1646 ft | 140 kts | 79° |
| 2026-05-06 14:23 | 48.36299 | 11.77045 | 1483 ft | 136 kts | 82° |
| 2026-05-06 14:23 | 48.36407 | 11.78311 | 1465 ft | 105 kts | 80° |
| 2026-05-06 14:24 | 48.36476 | 11.79292 | 1471 ft | 103 kts | 83° |
| 2026-05-06 14:24 | 48.36599 | 11.80761 | 1464 ft | 174 kts | 83° |
| 2026-05-06 14:24 | 48.36738 | 11.82700 | 2099 ft | 194 kts | 81° |
| 2026-05-06 14:24 | 48.36956 | 11.84803 | 2938 ft | 219 kts | 79° |
| 2026-05-06 14:25 | 48.37301 | 11.87149 | 3766 ft | 234 kts | 76° |
| 2026-05-06 14:25 | 48.37667 | 11.89389 | 4071 ft | 212 kts | 76° |
| 2026-05-06 14:25 | 48.38014 | 11.91497 | 4006 ft | 202 kts | 77° |
| 2026-05-06 14:25 | 48.38381 | 11.93672 | 4018 ft | 230 kts | 74° |
| 2026-05-06 14:26 | 48.39196 | 11.95789 | 4012 ft | 240 kts | 43° |
| 2026-05-06 14:26 | 48.40643 | 11.96947 | 4156 ft | 244 kts | 13° |
| 2026-05-06 14:26 | 48.42345 | 11.97226 | 4414 ft | 247 kts | 5° |
| 2026-05-06 14:26 | 48.44071 | 11.97365 | 4682 ft | 249 kts | 4° |
| 2026-05-06 14:27 | 48.45811 | 11.97508 | 4909 ft | 252 kts | 4° |
| 2026-05-06 14:27 | 48.47573 | 11.97607 | 4993 ft | 253 kts | 357° |
| 2026-05-06 14:27 | 48.49235 | 11.96779 | 5006 ft | 256 kts | 326° |
| 2026-05-06 14:27 | 48.50461 | 11.94881 | 5002 ft | 248 kts | 306° |
| 2026-05-06 14:28 | 48.51325 | 11.92760 | 4997 ft | 233 kts | 292° |
| 2026-05-06 14:28 | 48.51827 | 11.90473 | 5008 ft | 227 kts | 285° |
| 2026-05-06 14:28 | 48.52250 | 11.88181 | 5009 ft | 226 kts | 285° |
| 2026-05-06 14:28 | 48.52663 | 11.85888 | 5010 ft | 226 kts | 285° |
| 2026-05-06 14:29 | 48.53071 | 11.83602 | 5018 ft | 226 kts | 284° |
| 2026-05-06 14:29 | 48.53472 | 11.81340 | 5018 ft | 224 kts | 284° |
| 2026-05-06 14:29 | 48.53870 | 11.79075 | 5016 ft | 223 kts | 284° |
| 2026-05-06 14:29 | 48.54270 | 11.76808 | 5019 ft | 224 kts | 284° |
| 2026-05-06 14:30 | 48.54678 | 11.74525 | 5027 ft | 226 kts | 284° |
| 2026-05-06 14:30 | 48.55105 | 11.72251 | 5025 ft | 224 kts | 284° |
| 2026-05-06 14:30 | 48.55339 | 11.69945 | 5021 ft | 222 kts | 263° |
| 2026-05-06 14:30 | 48.54883 | 11.67761 | 5034 ft | 217 kts | 234° |
| 2026-05-06 14:31 | 48.53870 | 11.66234 | 5040 ft | 206 kts | 210° |
| 2026-05-06 14:31 | 48.52624 | 11.65174 | 4895 ft | 204 kts | 207° |
| 2026-05-06 14:31 | 48.51382 | 11.64127 | 4580 ft | 205 kts | 207° |
| 2026-05-06 14:31 | 48.50135 | 11.63077 | 4212 ft | 205 kts | 207° |
| 2026-05-06 14:32 | 48.48904 | 11.62042 | 3856 ft | 205 kts | 208° |
| 2026-05-06 14:32 | 48.47647 | 11.60983 | 3514 ft | 206 kts | 208° |
| 2026-05-06 14:32 | 48.46393 | 11.59924 | 3219 ft | 205 kts | 208° |
| 2026-05-06 14:32 | 48.45163 | 11.58890 | 2969 ft | 200 kts | 209° |
| 2026-05-06 14:33 | 48.43959 | 11.57880 | 2764 ft | 195 kts | 210° |
| 2026-05-06 14:33 | 48.42745 | 11.57154 | 2707 ft | 178 kts | 188° |
| 2026-05-06 14:33 | 48.41589 | 11.57297 | 2713 ft | 166 kts | 160° |
| 2026-05-06 14:33 | 48.40633 | 11.58201 | 2710 ft | 161 kts | 133° |
| 2026-05-06 14:34 | 48.39924 | 11.59492 | 2703 ft | 160 kts | 126° |
| 2026-05-06 14:34 | 48.39222 | 11.60783 | 2704 ft | 155 kts | 127° |
| 2026-05-06 14:34 | 48.38552 | 11.62015 | 2700 ft | 149 kts | 128° |
| 2026-05-06 14:34 | 48.37871 | 11.63274 | 2917 ft | 162 kts | 126° |
| 2026-05-06 14:35 | 48.37176 | 11.64654 | 3458 ft | 180 kts | 119° |
| 2026-05-06 14:35 | 48.36874 | 11.66611 | 3726 ft | 204 kts | 94° |
| 2026-05-06 14:35 | 48.36907 | 11.68963 | 3793 ft | 245 kts | 75° |
| 2026-05-06 14:35 | 48.37772 | 11.71224 | 4538 ft | 254 kts | 47° |
| 2026-05-06 14:36 | 48.38958 | 11.73085 | 4908 ft | 233 kts | 48° |
| 2026-05-06 14:36 | 48.40180 | 11.74435 | 4986 ft | 207 kts | 24° |
| 2026-05-06 14:36 | 48.41553 | 11.74845 | 5006 ft | 206 kts | 359° |
| 2026-05-06 14:36 | 48.42977 | 11.74271 | 5012 ft | 222 kts | 330° |
| 2026-05-06 14:37 | 48.44271 | 11.72971 | 5007 ft | 224 kts | 326° |
| 2026-05-06 14:37 | 48.45557 | 11.71636 | 5005 ft | 224 kts | 326° |
| 2026-05-06 14:37 | 48.46841 | 11.70302 | 5007 ft | 223 kts | 326° |
| 2026-05-06 14:37 | 48.48120 | 11.68975 | 5004 ft | 223 kts | 326° |
| 2026-05-06 14:38 | 48.49389 | 11.67659 | 5002 ft | 223 kts | 326° |
| 2026-05-06 14:38 | 48.50676 | 11.66327 | 5005 ft | 226 kts | 326° |
| 2026-05-06 14:38 | 48.51975 | 11.64987 | 5009 ft | 225 kts | 326° |
| 2026-05-06 14:38 | 48.53099 | 11.63368 | 5004 ft | 225 kts | 298° |
| 2026-05-06 14:39 | 48.53487 | 11.61130 | 5002 ft | 222 kts | 265° |
| 2026-05-06 14:39 | 48.53024 | 11.58957 | 5005 ft | 216 kts | 232° |
| 2026-05-06 14:39 | 48.51934 | 11.57537 | 5014 ft | 203 kts | 202° |
| 2026-05-06 14:39 | 48.50611 | 11.56895 | 5018 ft | 203 kts | 194° |
| 2026-05-06 14:40 | 48.49251 | 11.56300 | 5007 ft | 205 kts | 194° |
| 2026-05-06 14:40 | 48.47873 | 11.55696 | 5009 ft | 206 kts | 194° |
| 2026-05-06 14:40 | 48.46494 | 11.55091 | 4966 ft | 207 kts | 194° |
| 2026-05-06 14:40 | 48.45111 | 11.54483 | 4898 ft | 205 kts | 193° |
| 2026-05-06 14:41 | 48.43752 | 11.53883 | 4902 ft | 206 kts | 194° |
| 2026-05-06 14:41 | 48.42373 | 11.53272 | 4904 ft | 206 kts | 193° |
| 2026-05-06 14:41 | 48.41457 | 11.52867 | 4897 ft | 206 kts | 195° |
| 2026-05-06 14:41 | 48.40080 | 11.52261 | 4906 ft | 206 kts | 191° |
| 2026-05-06 14:42 | 48.38669 | 11.52061 | 4799 ft | 204 kts | 173° |
| 2026-05-06 14:42 | 48.37314 | 11.52553 | 4475 ft | 192 kts | 153° |
| 2026-05-06 14:42 | 48.36235 | 11.53598 | 4360 ft | 180 kts | 136° |
| 2026-05-06 14:42 | 48.35446 | 11.55022 | 4247 ft | 177 kts | 120° |
| 2026-05-06 14:43 | 48.34986 | 11.56635 | 4060 ft | 160 kts | 103° |
| 2026-05-06 14:43 | 48.34850 | 11.58220 | 3887 ft | 149 kts | 89° |
| 2026-05-06 14:43 | 48.34944 | 11.59757 | 3702 ft | 145 kts | 82° |
| 2026-05-06 14:43 | 48.35062 | 11.61251 | 3529 ft | 144 kts | 82° |
| 2026-05-06 14:44 | 48.35179 | 11.62736 | 3343 ft | 143 kts | 81° |
| 2026-05-06 14:44 | 48.35295 | 11.64206 | 3147 ft | 143 kts | 82° |
| 2026-05-06 14:44 | 48.35412 | 11.65694 | 2960 ft | 144 kts | 81° |
| 2026-05-06 14:45 | 48.35673 | 11.68675 | 2610 ft | 142 kts | 82° |
| 2026-05-06 14:45 | 48.35781 | 11.70149 | 2369 ft | 141 kts | 83° |
| 2026-05-06 14:45 | 48.35895 | 11.71591 | 2127 ft | 140 kts | 79° |
| 2026-05-06 14:45 | 48.36004 | 11.73054 | 1991 ft | 142 kts | 82° |
| 2026-05-06 14:46 | 48.36110 | 11.74517 | 1779 ft | 139 kts | 84° |
| 2026-05-06 14:46 | 48.36222 | 11.75961 | 1620 ft | 138 kts | 83° |
| 2026-05-06 14:46 | 48.36325 | 11.77375 | 1478 ft | 126 kts | 81° |
| 2026-05-06 14:46 | 48.36418 | 11.78536 | 1462 ft | 91 kts | 84° |
| 2026-05-06 14:47 | 48.36471 | 11.79240 | 1470 ft | 40 kts | 84° |
| 2026-05-06 14:47 | 48.36501 | 11.79661 | 1464 ft | 43 kts | 83° |
| 2026-05-06 14:47 | 48.36482 | 11.80080 | 1464 ft | 39 kts | 113° |
| 2026-05-06 14:47 | 48.36379 | 11.80437 | 1459 ft | 27 kts | 113° |
| 2026-05-06 14:48 | 48.36371 | 11.80468 | 1462 ft | 1 kts | 113° |
| 2026-05-06 14:48 | 48.36336 | 11.80516 | 1464 ft | 13 kts | 166° |
| 2026-05-06 14:48 | 48.36283 | 11.80374 | 1464 ft | 21 kts | 274° |
| 2026-05-06 14:48 | 48.36266 | 11.80162 | 1468 ft | 22 kts | 265° |
| 2026-05-06 14:49 | 48.36249 | 11.79907 | 1463 ft | 27 kts | 263° |
| 2026-05-06 14:49 | 48.36226 | 11.79636 | 1468 ft | 18 kts | 263° |
| 2026-05-06 14:49 | 48.36185 | 11.79477 | 1465 ft | 16 kts | 207° |
| 2026-05-06 14:49 | 48.36082 | 11.79484 | 1468 ft | 15 kts | 173° |
| 2026-05-06 14:50 | 48.35978 | 11.79502 | 1466 ft | 15 kts | 173° |
| 2026-05-06 14:50 | 48.35877 | 11.79519 | 1460 ft | 14 kts | 173° |
| 2026-05-06 14:50 | 48.35788 | 11.79535 | 1460 ft | 12 kts | 173° |
| 2026-05-06 14:50 | 48.35712 | 11.79552 | 1465 ft | 7 kts | 163° |
| 2026-05-06 14:51 | 48.35685 | 11.79596 | 1464 ft | 5 kts | 104° |
| 2026-05-06 14:51 | 48.35688 | 11.79642 | 1464 ft | 4 kts | 78° |
| 2026-05-06 14:51 | 48.35693 | 11.79674 | 1459 ft | 2 kts | 77° |
| 2026-05-06 14:51 | 48.35697 | 11.79699 | 1465 ft | 0 kts | 78° |